createdAt,value
2017-07-19T03:31:18.111Z,10.43
2017-07-19T03:33:45.780Z,10.30
2017-07-19T03:36:13.437Z,9.53
2017-07-19T03:38:41.464Z,10.57
2017-07-19T03:41:10.712Z,10.03
2017-07-19T03:43:38.382Z,10.57
2017-07-19T03:46:06.041Z,10.47
2017-07-19T03:48:33.679Z,9.40
2017-07-19T03:51:01.359Z,10.47
2017-07-19T03:53:29.017Z,10.10
2017-07-19T03:55:56.692Z,10.00
2017-07-19T03:58:24.342Z,9.77
2017-07-19T04:00:52.383Z,9.60
2017-07-19T04:03:20.030Z,9.77
2017-07-19T04:05:48.429Z,9.47
2017-07-19T04:08:16.098Z,12.13
2017-07-19T04:10:43.744Z,10.90
2017-07-19T04:13:12.244Z,10.10
2017-07-19T04:15:39.900Z,10.40
2017-07-19T04:18:07.565Z,10.40
2017-07-19T04:20:35.209Z,11.10
2017-07-19T04:23:03.641Z,10.33
2017-07-19T04:25:31.322Z,10.13
2017-07-19T04:27:59.424Z,10.97
2017-07-19T04:30:27.075Z,10.13
2017-07-19T04:32:55.546Z,10.10
2017-07-19T04:35:24.004Z,10.17
2017-07-19T04:37:51.656Z,9.90
2017-07-19T04:40:19.339Z,10.30
2017-07-19T04:42:47.016Z,10.70
2017-07-19T04:45:15.479Z,10.83
2017-07-19T04:47:43.109Z,10.43
2017-07-19T04:50:10.776Z,10.40
2017-07-19T04:52:38.452Z,11.57
2017-07-19T04:55:06.122Z,11.57
2017-07-19T04:57:33.801Z,10.83
2017-07-19T05:00:01.980Z,9.70
2017-07-19T05:02:30.003Z,9.47
2017-07-19T05:04:57.685Z,10.43
2017-07-19T05:07:25.725Z,11.50
2017-07-19T05:09:53.411Z,9.90
2017-07-19T05:12:21.116Z,10.70
2017-07-19T05:14:50.120Z,11.40
2017-07-19T05:17:17.893Z,10.90
2017-07-19T05:19:45.531Z,9.90
2017-07-19T05:22:14.535Z,11.47
2017-07-19T05:24:42.963Z,11.10
2017-07-19T05:27:10.617Z,10.60
2017-07-19T05:29:38.672Z,12.57
2017-07-19T05:32:06.341Z,11.17
2017-07-19T05:34:34.002Z,10.73
2017-07-19T05:37:01.993Z,11.30
2017-07-19T05:39:29.675Z,11.60
2017-07-19T05:41:57.326Z,9.07
2017-07-19T05:44:25.327Z,10.27
2017-07-19T05:46:53.754Z,10.47
2017-07-19T05:49:21.403Z,10.27
2017-07-19T05:51:49.459Z,9.80
2017-07-19T05:54:17.144Z,11.37
2017-07-19T05:56:44.793Z,9.47
2017-07-19T05:59:12.836Z,9.80
2017-07-19T06:01:40.494Z,11.27
2017-07-19T06:04:08.944Z,8.93
2017-07-19T06:06:36.991Z,9.70
2017-07-19T06:09:04.632Z,10.83
2017-07-19T06:11:32.260Z,9.90
2017-07-19T06:14:00.245Z,9.67
2017-07-19T06:16:28.667Z,8.73
2017-07-19T06:18:56.324Z,10.70
2017-07-19T06:21:24.975Z,8.47
2017-07-19T06:23:52.620Z,9.30
2017-07-19T06:26:21.033Z,9.60
2017-07-19T06:28:49.006Z,11.40
2017-07-19T06:31:16.627Z,8.77
2017-07-19T06:33:44.360Z,9.07
2017-07-19T06:36:12.384Z,9.17
2017-07-19T06:38:40.020Z,8.40
2017-07-19T06:41:07.648Z,7.80
2017-07-19T06:43:35.622Z,8.60
2017-07-19T06:46:03.262Z,8.50
2017-07-19T06:48:30.917Z,7.90
2017-07-19T06:50:58.916Z,9.47
2017-07-19T06:53:26.535Z,7.43
2017-07-19T06:55:54.197Z,8.67
2017-07-19T06:58:22.256Z,9.03
2017-07-19T07:00:50.652Z,8.40
2017-07-19T07:03:18.288Z,8.23
2017-07-19T07:05:47.092Z,6.63
2017-07-19T07:08:14.732Z,7.47
2017-07-19T07:10:43.164Z,7.50
2017-07-19T07:13:11.209Z,7.30
2017-07-19T07:15:38.850Z,7.07
2017-07-19T07:18:07.271Z,6.63
2017-07-19T07:20:34.927Z,8.37
2017-07-19T07:23:02.546Z,8.33
2017-07-19T07:25:30.205Z,7.77
2017-07-19T07:27:57.828Z,7.80
2017-07-19T07:30:25.490Z,6.63
2017-07-19T07:32:53.164Z,6.90
2017-07-19T07:35:20.819Z,6.57
2017-07-19T07:37:48.463Z,7.77
2017-07-19T07:40:16.593Z,6.60
2017-07-19T07:42:45.041Z,7.10
2017-07-19T07:45:12.699Z,6.60
2017-07-19T07:47:40.722Z,6.87
2017-07-19T07:50:08.366Z,7.67
2017-07-19T07:52:36.027Z,7.47
2017-07-19T07:55:04.122Z,6.50
2017-07-19T07:57:31.765Z,6.80
2017-07-19T08:00:00.193Z,7.23
2017-07-19T08:02:28.234Z,6.80
2017-07-19T08:04:55.882Z,9.57
2017-07-19T08:07:23.523Z,7.37
2017-07-19T08:09:51.502Z,6.60
2017-07-19T08:12:19.147Z,6.30
2017-07-19T08:14:46.793Z,5.63
2017-07-19T08:17:14.821Z,4.50
2017-07-19T08:19:42.484Z,3.80
2017-07-19T08:22:10.132Z,4.90
2017-07-19T08:24:38.933Z,3.97
2017-07-19T08:27:06.579Z,3.90
2017-07-19T08:29:34.231Z,3.87
2017-07-19T08:32:02.219Z,4.00
2017-07-19T08:34:29.990Z,3.80
2017-07-19T08:36:57.624Z,3.97
2017-07-19T08:39:25.601Z,4.47
2017-07-19T08:41:54.027Z,3.90
2017-07-19T08:44:21.648Z,4.30
2017-07-19T08:46:50.414Z,4.57
2017-07-19T08:49:18.045Z,8.60
2017-07-19T08:51:45.708Z,4.90
2017-07-19T08:54:13.361Z,4.03
2017-07-19T08:56:41.006Z,4.30
2017-07-19T08:59:08.669Z,4.47
2017-07-19T09:01:36.288Z,4.77
2017-07-19T09:04:03.964Z,4.43
2017-07-19T09:06:31.603Z,3.70
2017-07-19T09:08:59.616Z,3.50
2017-07-19T09:11:27.266Z,3.97
2017-07-19T09:13:54.901Z,3.97
2017-07-19T09:16:22.569Z,3.80
2017-07-19T09:18:50.970Z,3.87
2017-07-19T09:21:18.643Z,3.10
2017-07-19T09:23:46.307Z,4.73
2017-07-19T09:26:13.989Z,3.67
2017-07-19T09:28:41.638Z,3.80
2017-07-19T09:31:09.296Z,3.10
2017-07-19T09:33:36.938Z,3.30
2017-07-19T09:36:05.005Z,3.23
2017-07-19T09:38:32.635Z,2.90
2017-07-19T09:41:00.283Z,2.83
2017-07-19T09:43:27.954Z,3.13
2017-07-19T09:45:55.597Z,2.90
2017-07-19T09:48:23.260Z,3.53
2017-07-19T09:50:50.914Z,3.37
2017-07-19T09:53:18.911Z,2.77
2017-07-19T09:55:46.550Z,2.97
2017-07-19T09:58:15.034Z,2.67
2017-07-19T10:00:42.711Z,3.30
2017-07-19T10:03:10.347Z,2.70
2017-07-19T10:05:38.013Z,3.07
2017-07-19T10:08:05.703Z,3.10
2017-07-19T10:10:33.364Z,3.03
2017-07-19T10:13:01.053Z,3.30
2017-07-19T10:15:29.827Z,3.25
2017-07-19T10:17:57.496Z,3.55
2017-07-19T10:20:25.922Z,3.33
2017-07-19T10:22:53.643Z,3.62
2017-07-19T10:25:22.146Z,3.10
2017-07-19T10:27:49.825Z,3.20
2017-07-19T10:30:17.494Z,3.80
2017-07-19T10:32:45.526Z,3.58
2017-07-19T10:35:13.942Z,3.53
2017-07-19T10:37:41.603Z,3.45
2017-07-19T10:40:09.281Z,4.20
2017-07-19T10:42:36.933Z,5.97
2017-07-19T10:45:04.595Z,3.65
2017-07-19T10:47:32.304Z,3.20
2017-07-19T10:50:00.743Z,2.80
2017-07-19T10:52:28.425Z,3.70
2017-07-19T10:54:56.411Z,2.33
2017-07-19T10:57:24.061Z,3.73
2017-07-19T10:59:51.703Z,3.57
2017-07-19T11:02:19.357Z,2.60
2017-07-19T11:04:46.989Z,2.90
2017-07-19T11:07:14.628Z,2.40
2017-07-19T11:09:43.031Z,5.33
2017-07-19T11:12:10.704Z,2.80
2017-07-19T11:14:38.340Z,2.13
2017-07-19T11:17:05.995Z,2.63
2017-07-19T11:19:33.761Z,2.40
2017-07-19T11:22:02.181Z,2.13
2017-07-19T11:24:29.847Z,2.40
2017-07-19T11:26:57.517Z,2.33
2017-07-19T11:29:25.218Z,2.57
2017-07-19T11:31:52.856Z,2.00
2017-07-19T11:34:20.873Z,2.30
2017-07-19T11:36:48.548Z,2.43
2017-07-19T11:39:17.149Z,2.30
2017-07-19T11:41:44.822Z,2.87
2017-07-19T11:44:12.473Z,2.43
2017-07-19T11:46:40.124Z,2.40
2017-07-19T11:49:07.771Z,2.97
2017-07-19T11:51:35.428Z,4.20
2017-07-19T11:54:03.064Z,3.63
2017-07-19T11:56:31.072Z,2.70
2017-07-19T11:58:58.720Z,2.90
2017-07-19T12:01:26.383Z,3.10
2017-07-19T12:03:54.151Z,2.90
2017-07-19T12:06:21.787Z,2.87
2017-07-19T12:08:50.249Z,3.03
2017-07-19T12:11:18.069Z,2.97
2017-07-19T12:13:45.740Z,3.00
2017-07-19T12:16:13.394Z,3.47
2017-07-19T12:18:42.216Z,2.80
2017-07-19T12:21:09.898Z,3.23
2017-07-19T12:23:37.872Z,2.80
2017-07-19T12:26:05.533Z,2.47
2017-07-19T12:28:33.240Z,2.90
2017-07-19T12:31:00.931Z,3.10
2017-07-19T12:33:28.600Z,2.83
2017-07-19T12:35:56.592Z,3.07
2017-07-19T12:38:24.242Z,2.80
2017-07-19T12:40:51.894Z,3.27
2017-07-19T12:43:19.903Z,4.00
2017-07-19T12:45:48.344Z,3.00
2017-07-19T12:48:16.024Z,2.63
2017-07-19T12:50:44.012Z,3.10
2017-07-19T12:53:12.434Z,3.03
2017-07-19T12:55:40.085Z,2.60
2017-07-19T12:58:08.042Z,3.27
2017-07-19T13:00:35.689Z,2.77
2017-07-19T13:03:04.841Z,2.63
2017-07-19T13:05:32.872Z,2.50
2017-07-19T13:08:00.519Z,2.47
2017-07-19T13:10:28.933Z,2.67
2017-07-19T13:12:56.911Z,3.03
2017-07-19T13:15:24.956Z,2.60
2017-07-19T13:17:52.605Z,3.07
2017-07-19T13:20:21.808Z,2.70
2017-07-19T13:22:49.478Z,3.13
2017-07-19T13:25:17.176Z,3.07
2017-07-19T13:27:45.190Z,2.83
2017-07-19T13:30:13.614Z,2.97
2017-07-19T13:32:41.294Z,6.27
2017-07-19T13:35:09.504Z,5.53
2017-07-19T13:37:37.193Z,2.90
2017-07-19T13:40:05.391Z,3.10
2017-07-19T13:42:33.741Z,3.10
2017-07-19T13:45:01.529Z,3.57
2017-07-19T13:47:29.204Z,3.50
2017-07-19T13:49:57.256Z,3.47
2017-07-19T13:52:24.894Z,3.20
2017-07-19T13:54:52.575Z,3.60
2017-07-19T13:57:20.622Z,3.87
2017-07-19T13:59:48.287Z,3.80
2017-07-19T14:02:15.944Z,5.00
2017-07-19T14:04:44.730Z,3.90
2017-07-19T14:07:13.158Z,3.60
2017-07-19T14:09:40.852Z,3.80
2017-07-19T14:12:08.864Z,3.90
2017-07-19T14:14:36.516Z,3.97
2017-07-19T14:17:04.214Z,4.43
2017-07-19T14:19:33.719Z,3.67
2017-07-19T14:22:01.373Z,3.90
2017-07-19T14:24:29.029Z,3.63
2017-07-19T14:26:56.987Z,3.80
2017-07-19T14:29:24.648Z,3.93
2017-07-19T14:31:52.343Z,3.37
2017-07-19T14:34:20.376Z,3.93
2017-07-19T14:36:48.039Z,5.33
2017-07-19T14:39:15.705Z,5.20
2017-07-19T14:41:43.754Z,4.03
2017-07-19T14:44:12.174Z,3.70
2017-07-19T14:46:39.833Z,4.00
2017-07-19T14:49:07.871Z,3.43
2017-07-19T14:51:36.293Z,3.63
2017-07-19T14:54:03.965Z,3.97
2017-07-19T14:56:33.524Z,3.80
2017-07-19T14:59:01.175Z,4.33
2017-07-19T15:01:29.109Z,3.23
2017-07-19T15:03:57.107Z,3.80
2017-07-19T15:06:24.757Z,4.27
2017-07-19T15:08:52.411Z,3.43
2017-07-19T15:11:20.502Z,4.30
2017-07-19T15:13:48.162Z,4.17
2017-07-19T15:16:16.585Z,4.30
2017-07-19T15:18:44.634Z,4.20
2017-07-19T15:21:12.285Z,3.97
2017-07-19T15:23:40.691Z,3.83
2017-07-19T15:26:08.730Z,4.43
2017-07-19T15:28:37.153Z,5.00
2017-07-19T15:31:04.790Z,3.80
2017-07-19T15:33:32.753Z,4.70
2017-07-19T15:36:01.180Z,4.60
2017-07-19T15:38:28.840Z,3.97
2017-07-19T15:40:56.808Z,4.50
2017-07-19T15:43:24.463Z,5.67
2017-07-19T15:45:52.134Z,4.43
2017-07-19T15:48:20.155Z,4.10
2017-07-19T15:50:48.579Z,4.50
2017-07-19T15:53:16.213Z,5.23
2017-07-19T15:55:43.874Z,3.80
2017-07-19T15:58:11.520Z,4.07
2017-07-19T16:00:39.968Z,4.13
2017-07-19T16:03:07.645Z,3.57
2017-07-19T16:05:35.723Z,4.00
2017-07-19T16:08:04.276Z,3.40
2017-07-19T16:10:32.009Z,4.73
2017-07-19T16:12:59.682Z,4.33
2017-07-19T16:15:27.520Z,5.30
2017-07-19T16:17:55.182Z,3.80
2017-07-19T16:20:22.838Z,4.17
2017-07-19T16:22:50.621Z,4.37
2017-07-19T16:25:18.300Z,3.90
2017-07-19T16:27:46.375Z,3.70
2017-07-19T16:30:14.037Z,4.40
2017-07-19T16:32:41.693Z,3.60
2017-07-19T16:35:09.404Z,3.80
2017-07-19T16:37:37.063Z,3.30
2017-07-19T16:40:05.341Z,4.10
2017-07-19T16:42:33.045Z,3.63
2017-07-19T16:45:03.279Z,4.10
2017-07-19T16:47:30.948Z,4.30
2017-07-19T16:49:58.626Z,4.80
2017-07-19T16:52:26.322Z,4.40
2017-07-19T16:54:53.996Z,7.20
2017-07-19T16:57:21.689Z,4.03
2017-07-19T16:59:50.285Z,4.50
2017-07-19T17:02:17.937Z,4.10
2017-07-19T17:04:45.584Z,4.03
2017-07-19T17:07:13.588Z,4.43
2017-07-19T17:09:41.254Z,4.13
2017-07-19T17:12:08.918Z,11.17
2017-07-19T17:14:36.591Z,4.77
2017-07-19T17:17:04.255Z,6.50
2017-07-19T17:19:31.936Z,12.10
2017-07-19T17:22:00.370Z,23.10
2017-07-19T17:24:28.064Z,7.43
2017-07-19T17:26:55.777Z,4.40
2017-07-19T17:29:23.421Z,4.37
2017-07-19T17:31:51.122Z,4.60
2017-07-19T17:34:18.786Z,4.43
2017-07-19T17:36:46.482Z,4.30
2017-07-19T17:39:14.140Z,4.27
2017-07-19T17:41:42.178Z,4.17
2017-07-19T17:44:09.843Z,4.63
2017-07-19T17:46:38.483Z,5.53
2017-07-19T17:49:06.148Z,4.37
2017-07-19T17:51:33.884Z,5.83
2017-07-19T17:54:02.319Z,4.93
2017-07-19T17:56:29.967Z,3.43
2017-07-19T17:58:57.700Z,4.40
2017-07-19T18:01:25.337Z,4.10
2017-07-19T18:03:52.998Z,4.27
2017-07-19T18:06:20.659Z,4.30
2017-07-19T18:08:48.678Z,3.77
2017-07-19T18:11:16.874Z,5.30
2017-07-19T18:13:44.588Z,4.67
2017-07-19T18:16:13.039Z,4.90
2017-07-19T18:18:40.705Z,4.63
2017-07-19T18:21:08.436Z,4.57
2017-07-19T18:23:36.097Z,4.20
2017-07-19T18:26:03.819Z,4.77
2017-07-19T18:28:31.488Z,4.23
2017-07-19T18:30:59.185Z,4.63
2017-07-19T18:33:26.971Z,5.00
2017-07-19T18:35:54.976Z,4.87
2017-07-19T18:38:24.335Z,5.30
2017-07-19T18:40:52.007Z,4.50
2017-07-19T18:43:19.676Z,4.57
2017-07-19T18:45:47.331Z,4.57
2017-07-19T18:48:15.041Z,5.13
2017-07-19T18:50:43.455Z,4.87
2017-07-19T18:53:11.117Z,5.63
2017-07-19T18:55:38.770Z,4.70
2017-07-19T18:58:06.433Z,4.67
2017-07-19T19:00:34.076Z,5.40
2017-07-19T19:03:02.069Z,6.80
2017-07-19T19:05:29.831Z,5.00
2017-07-19T19:07:57.845Z,5.33
2017-07-19T19:10:25.631Z,4.60
2017-07-19T19:12:54.739Z,4.70
2017-07-19T19:15:23.522Z,5.43
2017-07-19T19:17:51.205Z,5.17
2017-07-19T19:20:18.871Z,5.10
2017-07-19T19:22:46.629Z,4.60
2017-07-19T19:25:14.280Z,7.57
2017-07-19T19:27:41.948Z,5.70
2017-07-19T19:30:09.597Z,4.90
2017-07-19T19:32:38.180Z,4.53
2017-07-19T19:35:05.826Z,6.37
2017-07-19T19:37:33.489Z,4.83
2017-07-19T19:40:01.129Z,6.07
2017-07-19T19:42:29.150Z,4.97
2017-07-19T19:44:56.824Z,8.20
2017-07-19T19:47:24.552Z,4.97
2017-07-19T19:49:53.033Z,4.70
2017-07-19T19:52:20.676Z,4.73
2017-07-19T19:54:48.349Z,5.57
2017-07-19T19:57:16.809Z,5.40
2017-07-19T19:59:50.269Z,6.00
2017-07-19T20:02:17.928Z,4.50
2017-07-19T20:04:46.096Z,4.30
2017-07-19T20:07:13.893Z,4.90
2017-07-19T20:09:42.352Z,4.83
2017-07-19T20:12:10.027Z,5.60
2017-07-19T20:14:37.660Z,4.60
2017-07-19T20:17:05.347Z,4.30
2017-07-19T20:19:33.069Z,5.20
2017-07-19T20:22:01.517Z,5.60
2017-07-19T20:24:29.159Z,7.20
2017-07-19T20:26:56.946Z,4.70
2017-07-19T20:29:24.582Z,9.00
2017-07-19T20:31:52.584Z,4.80
2017-07-19T20:34:20.221Z,5.87
2017-07-19T20:36:47.902Z,4.90
2017-07-19T20:39:15.546Z,4.80
2017-07-19T20:41:43.200Z,4.70
2017-07-19T20:44:10.862Z,5.27
2017-07-19T20:46:38.540Z,5.37
2017-07-19T20:49:06.490Z,5.50
2017-07-19T20:51:34.152Z,5.27
2017-07-19T20:54:01.852Z,5.27
2017-07-19T20:56:29.576Z,5.23
2017-07-19T20:58:57.300Z,4.40
2017-07-19T21:01:25.933Z,4.83
2017-07-19T21:03:53.577Z,5.23
2017-07-19T21:06:21.259Z,4.67
2017-07-19T21:08:48.916Z,4.47
2017-07-19T21:11:16.970Z,4.20
2017-07-19T21:13:44.679Z,4.70
2017-07-19T21:16:12.329Z,8.33
2017-07-19T21:18:40.247Z,4.23
2017-07-19T21:21:07.901Z,5.90
2017-07-19T21:23:35.635Z,4.37
2017-07-19T21:26:03.269Z,4.33
2017-07-19T21:28:30.926Z,8.50
2017-07-19T21:30:58.584Z,5.00
2017-07-19T21:33:26.241Z,4.20
2017-07-19T21:35:53.892Z,5.17
2017-07-19T21:38:21.865Z,4.07
2017-07-19T21:40:49.510Z,3.63
2017-07-19T21:43:17.936Z,7.50
2017-07-19T21:45:45.576Z,4.30
2017-07-19T21:48:13.234Z,4.33
2017-07-19T21:50:40.989Z,5.33
2017-07-19T21:53:09.052Z,3.77
2017-07-19T21:55:37.109Z,4.67
2017-07-19T21:58:05.586Z,4.87
2017-07-19T22:00:34.011Z,6.37
2017-07-19T22:03:01.998Z,7.30
2017-07-19T22:05:29.678Z,6.17
2017-07-19T22:07:57.312Z,6.70
2017-07-19T22:10:25.353Z,6.73
2017-07-19T22:12:52.998Z,7.53
2017-07-19T22:15:21.404Z,10.90
2017-07-19T22:17:49.457Z,10.70
2017-07-19T22:20:17.094Z,6.50
2017-07-19T22:22:44.728Z,7.33
2017-07-19T22:25:12.736Z,7.73
2017-07-19T22:27:41.139Z,7.97
